createdAt,value
2018-08-20T00:00:23.062Z,5.83
2018-08-20T00:02:53.084Z,6.55
2018-08-20T00:05:21.459Z,5.95
2018-08-20T00:07:48.934Z,5.15
2018-08-20T00:10:16.464Z,6.28
2018-08-20T00:12:43.943Z,5.90
2018-08-20T00:15:11.391Z,5.53
2018-08-20T00:17:38.885Z,5.87
2018-08-20T00:20:06.596Z,5.67
2018-08-20T00:22:34.067Z,5.53
2018-08-20T00:25:10.107Z,6.03
2018-08-20T00:27:37.571Z,6.22
2018-08-20T00:30:06.207Z,5.85
2018-08-20T00:32:34.028Z,6.03
2018-08-20T00:35:01.558Z,6.10
2018-08-20T00:37:28.998Z,6.17
2018-08-20T00:39:56.443Z,6.22
2018-08-20T00:42:23.914Z,5.60
2018-08-20T00:44:51.347Z,5.47
2018-08-20T00:47:18.768Z,5.80
2018-08-20T00:49:46.189Z,6.40
2018-08-20T00:52:13.945Z,5.33
2018-08-20T00:54:41.342Z,5.83
2018-08-20T00:57:08.811Z,5.72
2018-08-20T00:59:36.247Z,6.72
2018-08-20T01:02:03.888Z,5.75
2018-08-20T01:04:31.315Z,5.70
2018-08-20T01:06:58.739Z,5.87
2018-08-20T01:09:26.187Z,5.87
2018-08-20T01:11:53.708Z,6.00
2018-08-20T01:14:21.152Z,6.53
2018-08-20T01:16:48.595Z,6.30
2018-08-20T01:19:16.100Z,5.97
2018-08-20T01:21:43.527Z,6.17
2018-08-20T01:24:10.931Z,6.03
2018-08-20T01:26:38.382Z,5.90
2018-08-20T01:29:06.103Z,5.92
2018-08-20T01:31:33.543Z,6.00
2018-08-20T01:34:00.959Z,5.58
2018-08-20T01:36:28.381Z,6.03
2018-08-20T01:38:55.927Z,6.08
2018-08-20T01:41:23.343Z,5.85
2018-08-20T01:43:50.755Z,5.78
2018-08-20T01:46:18.167Z,6.70
2018-08-20T01:48:45.640Z,6.20
2018-08-20T01:51:13.105Z,5.42
2018-08-20T01:53:40.572Z,6.65
2018-08-20T01:56:08.452Z,5.25
2018-08-20T01:58:36.342Z,6.22
2018-08-20T02:01:03.826Z,6.78
2018-08-20T02:03:31.319Z,5.78
2018-08-20T02:05:58.800Z,6.28
2018-08-20T02:08:26.379Z,5.90
2018-08-20T02:10:53.864Z,5.78
2018-08-20T02:13:22.224Z,5.95
2018-08-20T02:15:49.711Z,6.42
2018-08-20T02:18:17.150Z,5.90
2018-08-20T02:20:44.630Z,6.17
2018-08-20T02:23:12.107Z,6.10
2018-08-20T02:25:39.524Z,6.17
2018-08-20T02:28:07.111Z,5.92
2018-08-20T02:30:34.607Z,5.97
2018-08-20T02:33:02.165Z,5.45
2018-08-20T02:35:29.584Z,5.97
2018-08-20T02:37:57.215Z,6.12
2018-08-20T02:40:24.682Z,6.15
2018-08-20T02:42:52.092Z,5.80
2018-08-20T02:45:19.572Z,6.10
2018-08-20T02:47:48.732Z,5.78
2018-08-20T02:50:16.517Z,6.25
2018-08-20T02:52:44.851Z,6.67
2018-08-20T02:55:12.431Z,5.05
2018-08-20T02:57:39.831Z,5.35
2018-08-20T03:00:12.324Z,5.75
2018-08-20T03:02:39.846Z,5.90
2018-08-20T03:05:09.957Z,5.65
2018-08-20T03:07:37.910Z,5.65
2018-08-20T03:10:07.767Z,5.45
2018-08-20T03:12:37.362Z,6.00
2018-08-20T03:15:06.896Z,5.75
2018-08-20T03:17:34.322Z,6.00
2018-08-20T03:20:01.851Z,6.35
2018-08-20T03:22:29.814Z,5.72
2018-08-20T03:24:58.248Z,6.67
2018-08-20T03:27:25.995Z,5.85
2018-08-20T03:29:53.402Z,5.75
2018-08-20T03:32:20.867Z,5.75
2018-08-20T03:34:49.334Z,6.10
2018-08-20T03:37:17.785Z,6.60
2018-08-20T03:42:28.831Z,5.87
2018-08-20T03:44:57.154Z,6.33
2018-08-20T03:47:25.083Z,5.03
2018-08-20T03:49:52.593Z,5.80
2018-08-20T03:52:20.051Z,5.83
2018-08-20T03:54:47.515Z,5.53
2018-08-20T03:57:15.004Z,5.58
2018-08-20T03:59:42.438Z,6.37
2018-08-20T04:02:09.872Z,6.33
2018-08-20T04:04:37.304Z,5.15
2018-08-20T04:07:06.103Z,5.53
2018-08-20T04:09:33.960Z,5.95
2018-08-20T04:12:02.381Z,5.42
2018-08-20T04:14:29.836Z,5.03
2018-08-20T04:16:57.918Z,5.50
2018-08-20T04:19:25.419Z,6.42
2018-08-20T04:21:52.959Z,6.35
2018-08-20T04:24:20.443Z,5.60
2018-08-20T04:26:48.416Z,6.15
2018-08-20T04:29:15.835Z,5.78
2018-08-20T04:31:43.227Z,6.03
2018-08-20T04:34:10.713Z,5.30
2018-08-20T04:36:38.136Z,6.33
2018-08-20T04:39:06.538Z,6.15
2018-08-20T04:41:34.050Z,5.33
2018-08-20T04:44:02.288Z,5.30
2018-08-20T04:46:30.244Z,5.90
2018-08-20T04:48:58.224Z,6.50
2018-08-20T04:51:26.338Z,6.30
2018-08-20T04:53:54.249Z,5.30
2018-08-20T04:56:22.604Z,6.47
2018-08-20T04:58:50.078Z,6.35
2018-08-20T05:01:17.517Z,5.92
2018-08-20T05:03:45.099Z,6.03
2018-08-20T05:06:12.572Z,6.25
2018-08-20T05:08:40.052Z,6.08
2018-08-20T05:11:07.666Z,6.05
2018-08-20T05:13:35.174Z,6.15
2018-08-20T05:16:02.635Z,6.62
2018-08-20T05:18:30.532Z,6.20
2018-08-20T05:20:58.130Z,6.00
2018-08-20T05:23:25.552Z,6.50
2018-08-20T05:25:53.018Z,6.20
2018-08-20T05:28:20.440Z,6.42
2018-08-20T05:30:47.878Z,7.12
2018-08-20T05:33:15.378Z,6.83
2018-08-20T05:35:42.843Z,5.70
2018-08-20T05:38:10.306Z,6.35
2018-08-20T05:40:37.883Z,6.67
2018-08-20T05:43:05.719Z,6.75
2018-08-20T05:45:33.144Z,5.92
2018-08-20T05:48:00.609Z,6.60
2018-08-20T05:50:28.181Z,6.55
2018-08-20T05:52:55.736Z,6.25
2018-08-20T05:55:23.212Z,6.53
2018-08-20T05:57:50.664Z,6.75
2018-08-20T06:00:18.414Z,6.70
2018-08-20T06:02:46.434Z,6.25
2018-08-20T06:05:13.971Z,6.95
2018-08-20T06:07:42.729Z,6.10
2018-08-20T06:10:10.707Z,5.95
2018-08-20T06:12:38.369Z,6.30
2018-08-20T06:15:08.088Z,6.05
2018-08-20T06:17:35.767Z,6.47
2018-08-20T06:20:03.293Z,5.33
2018-08-20T06:22:30.943Z,5.92
2018-08-20T06:24:58.454Z,6.17
2018-08-20T06:27:25.914Z,6.17
2018-08-20T06:29:53.374Z,5.80
2018-08-20T06:32:20.827Z,5.40
2018-08-20T06:34:48.254Z,5.62
2018-08-20T06:37:15.703Z,5.67
2018-08-20T06:39:43.188Z,6.20
2018-08-20T06:42:10.725Z,5.83
2018-08-20T06:44:38.216Z,5.60
2018-08-20T06:47:05.735Z,4.95
2018-08-20T06:49:33.191Z,5.95
2018-08-20T06:52:00.664Z,6.03
2018-08-20T06:54:28.152Z,5.85
2018-08-20T06:56:55.620Z,5.75
2018-08-20T06:59:23.089Z,6.50
2018-08-20T07:01:50.594Z,5.72
2018-08-20T07:04:18.044Z,5.83
2018-08-20T07:06:45.516Z,6.03
2018-08-20T07:09:12.995Z,6.10
2018-08-20T07:11:40.503Z,5.92
2018-08-20T07:14:08.000Z,40.05
2018-08-20T07:16:35.551Z,8.38
2018-08-20T07:19:03.039Z,6.47
2018-08-20T07:21:30.567Z,6.08
2018-08-20T07:23:58.054Z,6.35
2018-08-20T07:26:25.581Z,5.95
2018-08-20T07:28:53.084Z,6.65
2018-08-20T07:31:20.610Z,5.60
2018-08-20T07:33:48.095Z,6.17
2018-08-20T07:36:15.640Z,6.50
2018-08-20T07:38:43.099Z,5.90
2018-08-20T07:41:10.703Z,7.30
2018-08-20T07:43:38.152Z,6.70
2018-08-20T07:46:05.760Z,6.17
2018-08-20T07:48:33.262Z,6.33
2018-08-20T07:51:00.785Z,5.97
2018-08-20T07:53:28.348Z,6.30
2018-08-20T07:55:55.826Z,5.97
2018-08-20T07:58:23.291Z,6.17
2018-08-20T08:00:50.792Z,6.17
2018-08-20T08:03:28.919Z,6.67
2018-08-20T08:05:57.594Z,6.40
2018-08-20T08:08:25.092Z,6.72
2018-08-20T08:10:52.712Z,7.08
2018-08-20T08:13:20.222Z,5.62
2018-08-20T08:15:47.824Z,6.80
2018-08-20T08:18:15.322Z,6.83
2018-08-20T08:20:42.865Z,6.65
2018-08-20T08:23:10.334Z,11.78
2018-08-20T08:25:37.837Z,11.40
2018-08-20T08:28:05.774Z,8.48
2018-08-20T08:33:07.517Z,6.72
2018-08-20T08:35:34.968Z,6.55
2018-08-20T08:38:02.609Z,6.20
2018-08-20T08:40:30.061Z,6.85
2018-08-20T08:42:57.564Z,6.03
2018-08-20T08:45:25.030Z,6.42
2018-08-20T08:47:52.543Z,6.05
2018-08-20T08:50:20.263Z,6.78
2018-08-20T08:52:54.483Z,7.00
2018-08-20T08:55:21.989Z,6.58
2018-08-20T08:57:49.399Z,5.80
2018-08-20T09:00:18.546Z,6.20
2018-08-20T09:02:46.123Z,6.58
2018-08-20T09:05:13.794Z,5.87
2018-08-20T09:07:41.791Z,5.92
2018-08-20T09:10:09.883Z,6.42
2018-08-20T09:12:37.423Z,6.62
2018-08-20T09:15:07.193Z,6.97
2018-08-20T09:17:34.771Z,6.60
2018-08-20T09:20:02.387Z,6.85
2018-08-20T09:22:29.847Z,6.67
2018-08-20T09:24:58.231Z,7.15
2018-08-20T09:27:25.687Z,7.35
2018-08-20T09:29:54.048Z,7.42
2018-08-20T09:32:21.537Z,7.20
2018-08-20T09:34:48.951Z,7.17
2018-08-20T09:37:16.414Z,7.47
2018-08-20T09:39:43.807Z,7.35
2018-08-20T09:42:11.296Z,7.20
2018-08-20T09:44:38.788Z,6.55
2018-08-20T09:47:06.275Z,7.35
2018-08-20T09:49:33.731Z,6.50
2018-08-20T09:52:01.191Z,6.85
2018-08-20T09:54:28.635Z,5.92
2018-08-20T09:56:56.199Z,6.65
2018-08-20T09:59:24.160Z,6.90
2018-08-20T10:01:51.587Z,6.35
2018-08-20T10:04:19.057Z,6.85
2018-08-20T10:06:46.492Z,6.70
2018-08-20T10:09:13.925Z,6.45
2018-08-20T10:11:41.398Z,6.75
2018-08-20T10:14:08.885Z,6.35
2018-08-20T10:16:36.376Z,6.60
2018-08-20T10:19:03.872Z,6.40
2018-08-20T10:21:31.315Z,5.62
2018-08-20T10:23:58.761Z,5.55
2018-08-20T10:26:26.198Z,5.47
2018-08-20T10:28:53.679Z,5.65
2018-08-20T10:31:21.149Z,6.40
2018-08-20T10:33:48.592Z,6.30
2018-08-20T10:36:16.081Z,5.30
2018-08-20T10:38:43.592Z,5.37
2018-08-20T10:41:11.067Z,5.10
2018-08-20T10:43:38.599Z,4.70
2018-08-20T10:46:11.596Z,4.80
2018-08-20T10:48:39.105Z,5.45
2018-08-20T10:51:06.710Z,5.37
2018-08-20T10:53:34.136Z,4.97
2018-08-20T10:56:01.614Z,4.62
2018-08-20T10:58:29.101Z,5.08
2018-08-20T11:00:56.562Z,4.72
2018-08-20T11:03:24.037Z,4.58
2018-08-20T11:05:51.492Z,4.22
2018-08-20T11:08:19.002Z,4.35
2018-08-20T11:10:47.245Z,5.08
2018-08-20T11:13:14.696Z,4.33
2018-08-20T11:15:42.277Z,4.70
2018-08-20T11:18:09.791Z,4.75
2018-08-20T11:20:37.223Z,5.35
2018-08-20T11:23:05.097Z,5.60
2018-08-20T11:25:32.595Z,4.62
2018-08-20T11:28:00.160Z,5.70
2018-08-20T11:30:27.628Z,4.97
2018-08-20T11:32:55.179Z,5.12
2018-08-20T11:35:22.619Z,4.72
2018-08-20T11:37:50.040Z,5.97
2018-08-20T11:40:17.478Z,5.37
2018-08-20T11:42:44.876Z,5.50
2018-08-20T11:45:13.729Z,5.25
2018-08-20T11:47:41.623Z,4.87
2018-08-20T11:50:09.488Z,4.42
2018-08-20T11:52:37.580Z,4.37
2018-08-20T11:55:05.058Z,4.22
2018-08-20T11:57:32.508Z,4.90
2018-08-20T12:00:00.015Z,4.17
2018-08-20T12:02:27.483Z,4.45
2018-08-20T12:04:54.953Z,3.92
2018-08-20T12:07:22.414Z,4.12
2018-08-20T12:09:49.899Z,4.03
2018-08-20T12:12:17.690Z,3.90
2018-08-20T12:14:45.151Z,3.55
2018-08-20T12:17:12.679Z,3.67
2018-08-20T12:19:40.047Z,3.42
2018-08-20T12:22:07.508Z,3.37
2018-08-20T12:24:35.004Z,3.40
2018-08-20T12:27:02.748Z,2.92
2018-08-20T12:29:30.348Z,3.45
2018-08-20T12:31:57.939Z,2.60
2018-08-20T12:34:25.615Z,3.20
2018-08-20T12:36:53.145Z,3.40
2018-08-20T12:39:21.528Z,3.40
2018-08-20T12:41:52.700Z,3.10
2018-08-20T12:44:20.282Z,3.05
2018-08-20T12:46:47.776Z,3.05
2018-08-20T12:49:15.215Z,2.83
2018-08-20T12:51:42.647Z,3.20
2018-08-20T12:54:10.112Z,2.50
2018-08-20T12:56:37.644Z,3.37
2018-08-20T12:59:05.125Z,3.15
2018-08-20T13:01:32.605Z,3.12
2018-08-20T13:04:00.170Z,2.92
2018-08-20T13:06:27.676Z,2.85
2018-08-20T13:08:55.232Z,2.70
2018-08-20T13:11:22.758Z,3.12
2018-08-20T13:13:50.269Z,3.05
2018-08-20T13:16:17.843Z,2.83
2018-08-20T13:18:45.241Z,3.05
2018-08-20T13:21:12.859Z,2.60
2018-08-20T13:23:40.403Z,2.92
2018-08-20T13:26:07.924Z,2.67
2018-08-20T13:28:35.548Z,2.95
2018-08-20T13:31:03.448Z,2.62
2018-08-20T13:33:31.045Z,2.62
2018-08-20T13:35:58.508Z,2.75
2018-08-20T13:38:26.018Z,2.40
2018-08-20T13:40:53.629Z,2.12
2018-08-20T13:43:21.112Z,2.40
2018-08-20T13:45:48.616Z,3.10
2018-08-20T13:48:16.079Z,2.52
2018-08-20T13:50:43.515Z,2.35
2018-08-20T13:53:10.968Z,2.72
2018-08-20T13:55:38.444Z,2.40
2018-08-20T13:58:05.947Z,2.30
2018-08-20T14:00:33.457Z,2.45
2018-08-20T14:03:00.922Z,2.83
2018-08-20T14:05:28.439Z,2.33
2018-08-20T14:07:56.028Z,2.35
2018-08-20T14:10:23.551Z,2.95
2018-08-20T14:12:51.113Z,2.95
2018-08-20T14:15:18.662Z,2.90
2018-08-20T14:17:46.092Z,2.65
2018-08-20T14:20:14.472Z,2.80
2018-08-20T14:22:43.347Z,2.60
2018-08-20T14:25:11.033Z,3.15
2018-08-20T14:27:38.481Z,2.80
2018-08-20T14:30:08.197Z,2.95
2018-08-20T14:32:35.718Z,2.70
2018-08-20T14:35:03.639Z,2.58
2018-08-20T14:37:31.687Z,2.95
2018-08-20T14:39:59.145Z,2.27
2018-08-20T14:42:26.623Z,2.67
2018-08-20T14:44:54.079Z,2.33
2018-08-20T14:47:21.550Z,2.58
2018-08-20T14:49:49.038Z,2.35
2018-08-20T14:52:16.487Z,2.25
2018-08-20T14:54:43.911Z,2.45
2018-08-20T14:57:11.373Z,2.00
2018-08-20T14:59:38.795Z,1.77
2018-08-20T15:02:06.429Z,1.80
2018-08-20T15:04:33.758Z,1.40
2018-08-20T15:07:02.967Z,1.50
2018-08-20T15:09:30.980Z,1.07
2018-08-20T15:11:58.782Z,1.75
2018-08-20T15:14:26.227Z,1.50
2018-08-20T15:16:54.144Z,1.40
2018-08-20T15:19:21.587Z,1.30
2018-08-20T15:21:49.064Z,1.35
2018-08-20T15:24:17.672Z,1.32
2018-08-20T15:26:45.799Z,1.27
2018-08-20T15:29:13.276Z,1.30
2018-08-20T15:31:40.760Z,1.50
2018-08-20T15:34:08.355Z,1.40
2018-08-20T15:36:35.978Z,1.67
2018-08-20T15:39:04.498Z,1.30
2018-08-20T15:41:31.976Z,1.25
2018-08-20T15:43:59.425Z,1.30
2018-08-20T15:46:26.873Z,1.20
2018-08-20T15:48:54.312Z,1.25
2018-08-20T15:51:21.775Z,1.12
2018-08-20T15:53:49.203Z,1.25
2018-08-20T15:56:16.683Z,1.77
2018-08-20T15:58:44.100Z,1.47
2018-08-20T16:01:11.568Z,1.20
2018-08-20T16:03:39.046Z,1.50
2018-08-20T16:06:06.511Z,1.65
2018-08-20T16:08:34.074Z,1.60
2018-08-20T16:11:01.663Z,1.27
2018-08-20T16:13:29.735Z,1.60
2018-08-20T16:15:57.415Z,2.05
2018-08-20T16:18:25.038Z,2.58
2018-08-20T16:20:52.674Z,1.80
2018-08-20T16:23:20.231Z,2.33
2018-08-20T16:25:47.799Z,2.35
2018-08-20T16:28:15.347Z,1.95
2018-08-20T16:30:42.848Z,2.30
2018-08-20T16:33:10.344Z,2.22
2018-08-20T16:35:37.990Z,2.17
2018-08-20T16:38:05.512Z,2.80
2018-08-20T16:40:33.033Z,2.27
2018-08-20T16:43:01.357Z,2.52
2018-08-20T16:45:28.917Z,3.00
2018-08-20T16:47:56.491Z,2.80
2018-08-20T16:50:25.387Z,23.55
2018-08-20T16:52:52.926Z,10.05
2018-08-20T16:55:20.456Z,5.42
2018-08-20T16:57:47.911Z,2.10
2018-08-20T17:00:15.466Z,2.50
2018-08-20T17:02:43.483Z,2.00
2018-08-20T17:05:12.371Z,2.37
2018-08-20T17:07:40.023Z,2.62
2018-08-20T17:10:08.974Z,2.30
2018-08-20T17:12:36.510Z,2.83
2018-08-20T17:15:07.521Z,2.50
2018-08-20T17:17:35.024Z,2.25
2018-08-20T17:20:02.608Z,2.30
2018-08-20T17:22:30.103Z,2.60
2018-08-20T17:24:57.608Z,2.92
2018-08-20T17:27:25.208Z,2.45
2018-08-20T17:29:53.731Z,2.60
2018-08-20T17:32:21.335Z,2.65
2018-08-20T17:34:48.820Z,2.80
2018-08-20T17:37:16.407Z,2.35
2018-08-20T17:39:56.238Z,2.52
2018-08-20T17:45:16.568Z,2.25
2018-08-20T17:47:44.340Z,1.65
2018-08-20T17:50:34.607Z,1.70
2018-08-20T17:53:02.221Z,1.60
2018-08-20T17:55:29.879Z,1.55
2018-08-20T17:57:57.513Z,1.20
2018-08-20T18:00:27.083Z,1.50
2018-08-20T18:02:55.403Z,1.70
2018-08-20T18:05:24.722Z,1.30
2018-08-20T18:07:53.672Z,1.47
2018-08-20T18:10:21.945Z,1.00
2018-08-20T18:12:50.080Z,0.80
2018-08-20T18:15:18.714Z,1.42
2018-08-20T18:17:46.265Z,1.05
2018-08-20T18:20:13.805Z,1.20
2018-08-20T18:22:41.499Z,1.45
2018-08-20T18:25:09.135Z,1.37
2018-08-20T18:27:41.911Z,1.57
2018-08-20T18:30:09.537Z,1.25
2018-08-20T18:32:37.202Z,1.30
2018-08-20T18:35:04.884Z,1.40
2018-08-20T18:37:37.016Z,1.40
2018-08-20T18:40:06.275Z,1.70
2018-08-20T18:42:40.218Z,1.67
2018-08-20T18:45:07.780Z,1.70
2018-08-20T18:47:35.299Z,2.00
2018-08-20T18:50:02.859Z,1.85
2018-08-20T18:52:31.052Z,1.45
2018-08-20T18:54:59.495Z,1.62
2018-08-20T18:57:36.846Z,1.65
2018-08-20T19:00:09.808Z,1.72
2018-08-20T19:02:40.770Z,1.80
2018-08-20T19:05:10.724Z,1.80
2018-08-20T19:07:38.570Z,1.55
2018-08-20T19:10:16.780Z,1.70
2018-08-20T19:12:44.849Z,2.15
2018-08-20T19:15:24.442Z,2.37
2018-08-20T19:17:52.164Z,1.40
2018-08-20T19:20:20.011Z,2.27
2018-08-20T19:22:47.613Z,1.85
2018-08-20T19:25:15.138Z,2.00
2018-08-20T19:27:42.841Z,2.00
2018-08-20T19:30:17.415Z,2.10
2018-08-20T19:32:46.174Z,2.05
2018-08-20T19:35:14.412Z,2.00
2018-08-20T19:37:41.989Z,1.80
2018-08-20T19:40:09.683Z,1.70
2018-08-20T19:42:37.227Z,2.35
2018-08-20T19:45:07.291Z,2.58
2018-08-20T19:47:34.933Z,2.20
2018-08-20T19:50:02.694Z,2.12
2018-08-20T19:52:30.271Z,2.58
2018-08-20T19:55:06.038Z,2.10
2018-08-20T19:57:33.703Z,2.37
2018-08-20T20:00:01.277Z,2.47
2018-08-20T20:02:28.911Z,2.58
2018-08-20T20:05:01.029Z,2.30
2018-08-20T20:07:28.597Z,2.22
2018-08-20T20:09:57.668Z,2.30
2018-08-20T20:12:25.357Z,2.70
2018-08-20T20:14:58.206Z,2.37
2018-08-20T20:17:26.276Z,2.35
2018-08-20T20:19:53.940Z,2.37
2018-08-20T20:22:21.611Z,2.40
2018-08-20T20:24:49.545Z,2.00
2018-08-20T20:27:19.132Z,2.25
2018-08-20T20:29:47.251Z,2.40
2018-08-20T20:32:16.942Z,2.47
2018-08-20T20:34:44.781Z,2.65
2018-08-20T20:37:13.267Z,2.35
2018-08-20T20:39:45.931Z,2.50
2018-08-20T20:42:14.627Z,2.72
2018-08-20T20:44:42.677Z,2.33
2018-08-20T20:47:11.157Z,2.58
2018-08-20T20:49:39.949Z,2.47
2018-08-20T20:52:07.806Z,2.40
2018-08-20T20:54:36.825Z,2.77
2018-08-20T20:57:04.626Z,2.62
2018-08-20T20:59:40.259Z,2.35
2018-08-20T21:02:08.472Z,2.45
2018-08-20T21:04:38.106Z,2.37
2018-08-20T21:07:05.864Z,2.35
2018-08-20T21:09:41.504Z,2.20
2018-08-20T21:12:09.548Z,2.47
2018-08-20T21:14:37.652Z,3.08
2018-08-20T21:17:05.519Z,2.72
2018-08-20T21:19:34.661Z,2.33
2018-08-20T21:22:05.682Z,2.77
2018-08-20T21:24:34.380Z,2.30
2018-08-20T21:27:02.027Z,2.67
2018-08-20T21:29:31.486Z,2.40
2018-08-20T21:31:59.012Z,2.25
2018-08-20T21:34:29.189Z,2.65
2018-08-20T21:36:56.941Z,2.15
2018-08-20T21:39:24.700Z,2.47
2018-08-20T21:41:53.175Z,2.60
2018-08-20T21:44:20.820Z,2.27
2018-08-20T21:46:48.333Z,2.37
2018-08-20T21:49:15.931Z,2.47
2018-08-20T21:51:49.208Z,2.55
2018-08-20T21:54:23.207Z,2.25
2018-08-20T21:56:52.141Z,2.35
2018-08-20T21:59:22.002Z,2.55
2018-08-20T22:01:49.594Z,2.62
2018-08-20T22:04:20.150Z,2.17
2018-08-20T22:06:48.226Z,2.22
2018-08-20T22:09:15.959Z,2.30
2018-08-20T22:11:43.659Z,2.50
2018-08-20T22:14:11.263Z,2.20
2018-08-20T22:16:38.945Z,2.15
2018-08-20T22:19:06.683Z,2.17
2018-08-20T22:21:34.233Z,2.20
2018-08-20T22:24:02.645Z,2.40
2018-08-20T22:26:30.357Z,2.67
2018-08-20T22:28:58.620Z,2.22
2018-08-20T22:31:26.290Z,2.30
2018-08-20T22:33:59.950Z,2.30
2018-08-20T22:36:28.870Z,2.12
2018-08-20T22:38:57.831Z,2.33
2018-08-20T22:41:26.698Z,3.02
2018-08-20T22:43:54.495Z,2.37
2018-08-20T22:46:22.737Z,2.90
2018-08-20T22:48:51.895Z,2.55
2018-08-20T22:51:20.266Z,2.27
2018-08-20T22:53:50.284Z,2.33
2018-08-20T22:56:21.196Z,2.42
2018-08-20T22:58:48.996Z,2.83
2018-08-20T23:01:16.690Z,3.17
2018-08-20T23:03:44.426Z,2.92
2018-08-20T23:06:12.206Z,2.20
2018-08-20T23:08:39.822Z,2.50
2018-08-20T23:11:07.299Z,2.60
2018-08-20T23:13:35.292Z,3.00
2018-08-20T23:16:02.786Z,2.92
2018-08-20T23:18:30.393Z,2.95
2018-08-20T23:20:58.068Z,3.10
2018-08-20T23:23:32.110Z,3.02
2018-08-20T23:26:05.179Z,3.00
2018-08-20T23:28:33.534Z,2.83
2018-08-20T23:31:01.863Z,3.05
2018-08-20T23:33:30.803Z,2.52
2018-08-20T23:35:58.456Z,3.05
2018-08-20T23:38:26.391Z,2.70
2018-08-20T23:40:53.909Z,3.02
2018-08-20T23:43:21.596Z,2.50
2018-08-20T23:45:49.115Z,2.87
2018-08-20T23:48:16.592Z,2.75
2018-08-20T23:50:50.395Z,2.35
2018-08-20T23:53:18.028Z,2.70
2018-08-20T23:55:45.510Z,2.98
2018-08-20T23:58:13.056Z,2.62
